Keystone, Indiana
Current Conditions -  °F | °C
As of 1:15 PM on Thursday 30 Oct 2014 (Local Time) from KMZZ Reporting Station
Broken Clouds Broken Clouds  
Wind Chill: 47°   Ceiling: 3900
Heat Index: 47°   Visibility: 10mi
Dew Point: 31°   Wind: 0mph
Humidity: 53%   Direction: NA
Pressure: 30.14"   Gusts: NA
Location:  40.6°N, 85.26°W
Report Text: KMZZ 301715Z AUTO 00000KT 10SM BKN039 09/00 A3014 RMK AO2 T00851005
Loading
Personal Weather Stations






























Interactive Weather Map
Tropical Storm Tracking
New forecast layout! Learn more

10-Day Weather Forecast

Advertisements
Track Severe Weather on mobile